sensor_id;sensor_type;location;lat;lon;timestamp;pressure;altitude;pressure_sealevel;temperature;humidity
20455;BME280;10386;54.314;10.022;2022-11-02T01:55:42;101308.59;;;12.12;100.00
20455;BME280;10386;54.314;10.022;2022-11-02T02:20:09;101267.00;;;12.35;100.00
20455;BME280;10386;54.314;10.022;2022-11-02T02:47:17;101250.34;;;12.14;100.00
20455;BME280;10386;54.314;10.022;2022-11-02T02:58:58;101241.41;;;11.87;100.00
20455;BME280;10386;54.314;10.022;2022-11-02T03:08:20;101230.63;;;11.86;100.00
20455;BME280;10386;54.314;10.022;2022-11-02T03:11:18;101221.16;;;11.91;100.00
20455;BME280;10386;54.314;10.022;2022-11-02T03:14:25;101212.69;;;11.96;100.00
20455;BME280;10386;54.314;10.022;2022-11-02T03:17:24;101207.78;;;11.88;100.00
20455;BME280;10386;54.314;10.022;2022-11-02T03:37:53;101147.16;;;11.86;100.00
20455;BME280;10386;54.314;10.022;2022-11-02T03:40:48;101135.75;;;11.81;100.00
20455;BME280;10386;54.314;10.022;2022-11-02T03:43:48;101141.50;;;11.77;100.00
20455;BME280;10386;54.314;10.022;2022-11-02T03:52:47;101112.47;;;11.77;100.00
20455;BME280;10386;54.314;10.022;2022-11-02T03:55:28;101102.88;;;11.84;100.00
20455;BME280;10386;54.314;10.022;2022-11-02T04:07:01;101108.00;;;11.64;100.00
20455;BME280;10386;54.314;10.022;2022-11-02T05:05:39;101072.88;;;11.73;100.00
20455;BME280;10386;54.314;10.022;2022-11-02T05:08:10;101073.28;;;11.55;100.00
20455;BME280;10386;54.314;10.022;2022-11-02T05:10:40;101071.56;;;11.66;100.00
20455;BME280;10386;54.314;10.022;2022-11-02T05:16:15;101061.75;;;11.76;100.00
20455;BME280;10386;54.314;10.022;2022-11-02T05:22:01;101067.41;;;11.61;100.00
20455;BME280;10386;54.314;10.022;2022-11-02T05:24:29;101065.69;;;11.60;100.00
20455;BME280;10386;54.314;10.022;2022-11-02T05:27:04;101067.41;;;11.61;100.00
20455;BME280;10386;54.314;10.022;2022-11-02T05:29:33;101063.81;;;11.48;100.00
20455;BME280;10386;54.314;10.022;2022-11-02T06:19:37;101065.47;;;11.63;100.00
20455;BME280;10386;54.314;10.022;2022-11-02T06:22:08;101060.25;;;11.60;100.00
20455;BME280;10386;54.314;10.022;2022-11-02T06:24:38;101062.66;;;11.64;100.00
20455;BME280;10386;54.314;10.022;2022-11-02T06:27:09;101071.34;;;11.57;100.00
20455;BME280;10386;54.314;10.022;2022-11-02T06:29:39;101060.34;;;11.71;100.00
20455;BME280;10386;54.314;10.022;2022-11-02T06:32:27;101057.84;;;11.68;100.00
20455;BME280;10386;54.314;10.022;2022-11-02T06:40:59;101059.25;;;11.61;100.00
20455;BME280;10386;54.314;10.022;2022-11-02T06:44:05;101055.25;;;11.66;100.00
20455;BME280;10386;54.314;10.022;2022-11-02T06:56:00;101067.75;;;11.69;100.00
20455;BME280;10386;54.314;10.022;2022-11-02T07:04:38;101077.19;;;11.88;100.00
20455;BME280;10386;54.314;10.022;2022-11-02T07:53:43;101135.88;;;12.28;100.00
20455;BME280;10386;54.314;10.022;2022-11-02T07:56:12;101145.53;;;12.44;100.00
20455;BME280;10386;54.314;10.022;2022-11-02T07:58:44;101131.47;;;12.50;100.00
20455;BME280;10386;54.314;10.022;2022-11-02T08:01:13;101146.28;;;12.46;100.00
20455;BME280;10386;54.314;10.022;2022-11-02T08:03:44;101134.50;;;12.58;100.00
20455;BME280;10386;54.314;10.022;2022-11-02T08:08:53;101142.84;;;12.68;100.00
20455;BME280;10386;54.314;10.022;2022-11-02T08:11:37;101158.84;;;13.08;100.00
20455;BME280;10386;54.314;10.022;2022-11-02T08:14:20;101160.63;;;12.97;100.00
20455;BME280;10386;54.314;10.022;2022-11-02T08:16:54;101159.59;;;13.10;100.00
20455;BME280;10386;54.314;10.022;2022-11-02T08:19:26;101182.66;;;13.41;100.00
20455;BME280;10386;54.314;10.022;2022-11-02T08:21:56;101179.88;;;13.06;100.00
20455;BME280;10386;54.314;10.022;2022-11-02T08:24:36;101195.63;;;12.90;100.00
20455;BME280;10386;54.314;10.022;2022-11-02T08:27:54;101195.97;;;12.98;100.00
20455;BME280;10386;54.314;10.022;2022-11-02T08:30:25;101190.38;;;13.23;100.00
20455;BME280;10386;54.314;10.022;2022-11-02T08:32:54;101185.69;;;13.25;100.00
20455;BME280;10386;54.314;10.022;2022-11-02T08:35:27;101202.03;;;13.25;100.00
20455;BME280;10386;54.314;10.022;2022-11-02T08:38:25;101214.16;;;12.98;100.00
20455;BME280;10386;54.314;10.022;2022-11-02T08:40:55;101212.16;;;12.76;100.00
20455;BME280;10386;54.314;10.022;2022-11-02T08:43:24;101210.91;;;12.93;100.00
20455;BME280;10386;54.314;10.022;2022-11-02T08:49:16;101211.44;;;13.21;100.00
20455;BME280;10386;54.314;10.022;2022-11-02T08:51:49;101206.59;;;13.48;100.00
20455;BME280;10386;54.314;10.022;2022-11-02T08:56:58;101222.38;;;13.90;100.00
20455;BME280;10386;54.314;10.022;2022-11-02T08:59:31;101221.13;;;13.49;100.00
20455;BME280;10386;54.314;10.022;2022-11-02T09:02:19;101224.13;;;13.33;100.00
20455;BME280;10386;54.314;10.022;2022-11-02T09:04:51;101227.03;;;12.96;100.00
20455;BME280;10386;54.314;10.022;2022-11-02T09:07:22;101242.81;;;13.03;100.00
20455;BME280;10386;54.314;10.022;2022-11-02T09:09:52;101228.06;;;13.06;100.00
20455;BME280;10386;54.314;10.022;2022-11-02T09:12:22;101239.22;;;12.90;100.00
20455;BME280;10386;54.314;10.022;2022-11-02T09:15:09;101242.13;;;12.76;100.00
20455;BME280;10386;54.314;10.022;2022-11-02T09:17:39;101246.69;;;12.76;100.00
20455;BME280;10386;54.314;10.022;2022-11-02T09:20:09;101265.00;;;12.74;100.00
20455;BME280;10386;54.314;10.022;2022-11-02T09:25:51;101253.44;;;12.95;100.00
20455;BME280;10386;54.314;10.022;2022-11-02T09:28:24;101269.63;;;13.09;100.00
20455;BME280;10386;54.314;10.022;2022-11-02T09:31:17;101261.78;;;13.28;100.00
20455;BME280;10386;54.314;10.022;2022-11-02T09:33:48;101258.78;;;13.20;100.00
20455;BME280;10386;54.314;10.022;2022-11-02T09:36:18;101256.97;;;13.08;100.00
20455;BME280;10386;54.314;10.022;2022-11-02T09:38:46;101264.00;;;13.23;100.00
20455;BME280;10386;54.314;10.022;2022-11-02T09:41:32;101249.59;;;12.85;100.00
20455;BME280;10386;54.314;10.022;2022-11-02T09:44:17;101275.88;;;12.74;100.00
20455;BME280;10386;54.314;10.022;2022-11-02T09:46:52;101263.25;;;12.60;100.00
20455;BME280;10386;54.314;10.022;2022-11-02T09:49:43;101270.13;;;12.78;100.00
20455;BME280;10386;54.314;10.022;2022-11-02T09:58:16;101275.44;;;12.67;100.00
20455;BME280;10386;54.314;10.022;2022-11-02T10:00:47;101263.13;;;12.74;100.00
20455;BME280;10386;54.314;10.022;2022-11-02T10:06:21;101269.38;;;12.76;100.00
20455;BME280;10386;54.314;10.022;2022-11-02T10:16:34;101265.44;;;12.80;100.00
20455;BME280;10386;54.314;10.022;2022-11-02T10:19:10;101252.88;;;12.78;100.00
20455;BME280;10386;54.314;10.022;2022-11-02T10:21:41;101255.16;;;12.71;100.00
20455;BME280;10386;54.314;10.022;2022-11-02T10:24:26;101273.19;;;12.61;100.00
20455;BME280;10386;54.314;10.022;2022-11-02T10:27:00;101263.25;;;12.60;100.00
20455;BME280;10386;54.314;10.022;2022-11-02T10:30:00;101264.59;;;12.55;100.00
20455;BME280;10386;54.314;10.022;2022-11-02T10:32:31;101260.03;;;12.43;100.00
20455;BME280;10386;54.314;10.022;2022-11-02T10:35:15;101257.72;;;12.62;100.00
20455;BME280;10386;54.314;10.022;2022-11-02T10:38:22;101241.22;;;12.88;100.00
20455;BME280;10386;54.314;10.022;2022-11-02T10:42:17;101253.34;;;13.08;100.00
20455;BME280;10386;54.314;10.022;2022-11-02T10:47:56;101261.09;;;13.61;100.00
20455;BME280;10386;54.314;10.022;2022-11-02T10:53:11;101262.19;;;13.58;100.00
20455;BME280;10386;54.314;10.022;2022-11-02T10:56:05;101273.50;;;13.41;100.00
20455;BME280;10386;54.314;10.022;2022-11-02T10:58:35;101308.06;;;13.30;100.00
20455;BME280;10386;54.314;10.022;2022-11-02T11:01:07;101305.34;;;13.17;100.00
20455;BME280;10386;54.314;10.022;2022-11-02T11:04:04;101318.94;;;12.94;100.00
20455;BME280;10386;54.314;10.022;2022-11-02T11:06:37;101313.16;;;12.98;100.00
20455;BME280;10386;54.314;10.022;2022-11-02T11:12:15;101309.66;;;12.84;100.00
20455;BME280;10386;54.314;10.022;2022-11-02T11:14:54;101318.16;;;12.92;100.00
20455;BME280;10386;54.314;10.022;2022-11-02T11:17:43;101325.69;;;12.63;100.00
20455;BME280;10386;54.314;10.022;2022-11-02T11:20:33;101320.72;;;12.45;100.00
20455;BME280;10386;54.314;10.022;2022-11-02T11:23:15;101327.78;;;12.47;100.00
20455;BME280;10386;54.314;10.022;2022-11-02T11:26:01;101361.88;;;12.40;100.00
20455;BME280;10386;54.314;10.022;2022-11-02T11:28:35;101378.31;;;12.27;100.00
20455;BME280;10386;54.314;10.022;2022-11-02T11:31:09;101384.81;;;12.12;100.00
20455;BME280;10386;54.314;10.022;2022-11-02T11:33:57;101394.66;;;12.00;100.00
20455;BME280;10386;54.314;10.022;2022-11-02T11:36:33;101386.06;;;11.94;100.00
20455;BME280;10386;54.314;10.022;2022-11-02T11:39:03;101385.59;;;11.87;100.00
20455;BME280;10386;54.314;10.022;2022-11-02T11:41:38;101389.31;;;11.86;100.00
20455;BME280;10386;54.314;10.022;2022-11-02T11:44:11;101401.25;;;11.84;100.00
20455;BME280;10386;54.314;10.022;2022-11-02T11:46:47;101398.28;;;11.74;100.00
20455;BME280;10386;54.314;10.022;2022-11-02T11:49:29;101391.53;;;11.53;100.00
20455;BME280;10386;54.314;10.022;2022-11-02T11:52:28;101355.63;;;11.34;100.00
20455;BME280;10386;54.314;10.022;2022-11-02T11:58:29;101302.09;;;11.22;100.00
20455;BME280;10386;54.314;10.022;2022-11-02T12:01:42;101298.91;;;11.16;100.00
20455;BME280;10386;54.314;10.022;2022-11-02T12:17:33;101250.38;;;10.84;100.00
20455;BME280;10386;54.314;10.022;2022-11-02T12:24:01;101226.22;;;10.79;100.00
20455;BME280;10386;54.314;10.022;2022-11-02T12:27:06;101236.25;;;10.79;100.00
20455;BME280;10386;54.314;10.022;2022-11-02T12:30:45;101214.81;;;10.74;100.00
20455;BME280;10386;54.314;10.022;2022-11-02T12:34:06;101209.97;;;10.65;100.00
20455;BME280;10386;54.314;10.022;2022-11-02T12:41:25;101212.59;;;10.67;100.00
20455;BME280;10386;54.314;10.022;2022-11-02T12:47:56;101207.22;;;10.79;100.00
20455;BME280;10386;54.314;10.022;2022-11-02T12:51:10;101217.69;;;10.85;100.00
20455;BME280;10386;54.314;10.022;2022-11-02T12:57:20;101230.84;;;10.91;100.00
20455;BME280;10386;54.314;10.022;2022-11-02T13:00:21;101245.31;;;10.92;100.00
20455;BME280;10386;54.314;10.022;2022-11-02T13:04:14;101239.47;;;10.98;100.00
20455;BME280;10386;54.314;10.022;2022-11-02T13:06:15;101241.44;;;10.96;100.00
20455;BME280;10386;54.314;10.022;2022-11-02T13:24:32;101222.47;;;10.82;100.00
20455;BME280;10386;54.314;10.022;2022-11-02T13:27:30;101221.47;;;10.83;100.00
20455;BME280;10386;54.314;10.022;2022-11-02T13:30:51;101215.72;;;10.87;100.00
20455;BME280;10386;54.314;10.022;2022-11-02T13:48:38;101159.09;;;11.07;100.00
20455;BME280;10386;54.314;10.022;2022-11-02T13:51:36;101148.56;;;11.15;100.00
20455;BME280;10386;54.314;10.022;2022-11-02T13:54:29;101145.75;;;11.17;100.00
20455;BME280;10386;54.314;10.022;2022-11-02T13:57:39;101139.66;;;11.13;100.00
20455;BME280;10386;54.314;10.022;2022-11-02T14:00:38;101140.63;;;11.12;100.00
20455;BME280;10386;54.314;10.022;2022-11-02T14:03:25;101135.19;;;11.12;100.00
20455;BME280;10386;54.314;10.022;2022-11-02T14:18:12;101094.81;;;10.94;100.00
20455;BME280;10386;54.314;10.022;2022-11-02T14:20:45;101094.25;;;10.89;100.00
20455;BME280;10386;54.314;10.022;2022-11-02T14:23:34;101090.22;;;10.82;100.00
20455;BME280;10386;54.314;10.022;2022-11-02T14:26:28;101092.59;;;10.74;100.00
20455;BME280;10386;54.314;10.022;2022-11-02T14:28:57;101094.69;;;10.83;100.00
20455;BME280;10386;54.314;10.022;2022-11-02T14:31:35;101084.22;;;10.65;100.00
20455;BME280;10386;54.314;10.022;2022-11-02T14:34:20;101085.34;;;10.75;100.00
20455;BME280;10386;54.314;10.022;2022-11-02T14:39:57;101094.00;;;10.67;100.00
20455;BME280;10386;54.314;10.022;2022-11-02T14:45:28;101104.13;;;10.78;100.00
20455;BME280;10386;54.314;10.022;2022-11-02T14:48:03;101117.38;;;10.82;100.00
20455;BME280;10386;54.314;10.022;2022-11-02T14:50:32;101108.25;;;10.83;100.00
20455;BME280;10386;54.314;10.022;2022-11-02T14:53:04;101107.97;;;10.88;100.00
20455;BME280;10386;54.314;10.022;2022-11-02T14:55:36;101104.16;;;10.90;100.00
20455;BME280;10386;54.314;10.022;2022-11-02T14:58:14;101111.66;;;10.87;100.00
20455;BME280;10386;54.314;10.022;2022-11-02T15:03:31;101128.09;;;10.71;100.00
20455;BME280;10386;54.314;10.022;2022-11-02T15:06:21;101139.78;;;10.59;100.00
20455;BME280;10386;54.314;10.022;2022-11-02T15:09:01;101140.00;;;10.56;100.00
20455;BME280;10386;54.314;10.022;2022-11-02T15:19:45;101147.09;;;10.45;100.00
20455;BME280;10386;54.314;10.022;2022-11-02T15:23:39;101151.06;;;10.53;100.00
20455;BME280;10386;54.314;10.022;2022-11-02T15:25:54;101148.91;;;10.58;100.00
20455;BME280;10386;54.314;10.022;2022-11-02T15:28:26;101150.38;;;10.50;100.00
20455;BME280;10386;54.314;10.022;2022-11-02T15:31:00;101149.13;;;10.55;100.00
20455;BME280;10386;54.314;10.022;2022-11-02T15:33:41;101146.19;;;10.58;100.00
20455;BME280;10386;54.314;10.022;2022-11-02T15:36:29;101143.75;;;10.54;100.00
20455;BME280;10386;54.314;10.022;2022-11-02T15:39:04;101144.56;;;10.42;100.00
20455;BME280;10386;54.314;10.022;2022-11-02T15:51:04;101127.63;;;10.38;100.00
20455;BME280;10386;54.314;10.022;2022-11-02T15:56:27;101120.63;;;10.48;100.00
20455;BME280;10386;54.314;10.022;2022-11-02T15:59:33;101116.75;;;10.52;100.00
20455;BME280;10386;54.314;10.022;2022-11-02T16:02:11;101109.38;;;10.54;100.00
20455;BME280;10386;54.314;10.022;2022-11-02T16:04:46;101112.16;;;10.53;100.00
20455;BME280;10386;54.314;10.022;2022-11-02T16:07:16;101115.97;;;10.50;100.00
20455;BME280;10386;54.314;10.022;2022-11-02T16:09:45;101122.16;;;10.52;100.00
20455;BME280;10386;54.314;10.022;2022-11-02T16:12:19;101130.03;;;10.43;100.00
20455;BME280;10386;54.314;10.022;2022-11-02T16:17:48;101127.88;;;10.48;100.00
20455;BME280;10386;54.314;10.022;2022-11-02T16:20:33;101122.56;;;10.46;100.00
20455;BME280;10386;54.314;10.022;2022-11-02T16:23:06;101132.81;;;10.55;100.00
20455;BME280;10386;54.314;10.022;2022-11-02T16:25:45;101132.34;;;10.49;100.00
20455;BME280;10386;54.314;10.022;2022-11-02T16:33:26;101136.09;;;10.60;100.00
20455;BME280;10386;54.314;10.022;2022-11-02T16:54:26;101169.72;;;10.72;100.00
20455;BME280;10386;54.314;10.022;2022-11-02T16:57:03;101169.03;;;10.68;100.00
20455;BME280;10386;54.314;10.022;2022-11-02T17:00:08;101181.28;;;10.61;100.00
20455;BME280;10386;54.314;10.022;2022-11-02T17:02:52;101198.16;;;10.66;100.00
20455;BME280;10386;54.314;10.022;2022-11-02T17:05:24;101213.06;;;10.73;100.00
20455;BME280;10386;54.314;10.022;2022-11-02T17:08:07;101220.16;;;10.62;100.00
20455;BME280;10386;54.314;10.022;2022-11-02T17:10:36;101235.69;;;10.46;100.00
20455;BME280;10386;54.314;10.022;2022-11-02T17:13:13;101245.59;;;10.47;100.00
20455;BME280;10386;54.314;10.022;2022-11-02T17:15:50;101262.06;;;10.44;100.00
20455;BME280;10386;54.314;10.022;2022-11-02T17:18:36;101273.03;;;10.42;100.00
20455;BME280;10386;54.314;10.022;2022-11-02T17:31:14;101303.66;;;10.30;100.00
20455;BME280;10386;54.314;10.022;2022-11-02T17:48:46;101336.47;;;10.12;100.00
20455;BME280;10386;54.314;10.022;2022-11-02T18:03:39;101347.91;;;10.03;100.00
20455;BME280;10386;54.314;10.022;2022-11-02T18:06:15;101348.22;;;9.97;100.00
20455;BME280;10386;54.314;10.022;2022-11-02T18:51:23;101376.16;;;9.23;100.00
20455;BME280;10386;54.314;10.022;2022-11-02T19:03:54;101368.38;;;9.02;100.00
20455;BME280;10386;54.314;10.022;2022-11-02T19:07:18;101353.63;;;9.07;100.00
20455;BME280;10386;54.314;10.022;2022-11-02T19:45:49;101319.59;;;8.86;100.00
20455;BME280;10386;54.314;10.022;2022-11-02T19:48:44;101322.25;;;8.88;100.00
20455;BME280;10386;54.314;10.022;2022-11-02T20:02:56;101333.97;;;9.19;100.00
20455;BME280;10386;54.314;10.022;2022-11-02T20:05:52;101337.69;;;9.17;100.00
20455;BME280;10386;54.314;10.022;2022-11-02T20:24:33;101348.28;;;9.06;100.00
20455;BME280;10386;54.314;10.022;2022-11-02T20:36:13;101348.81;;;8.97;100.00
20455;BME280;10386;54.314;10.022;2022-11-02T20:54:28;101341.38;;;8.85;100.00
20455;BME280;10386;54.314;10.022;2022-11-02T21:09:19;101350.34;;;8.85;100.00
20455;BME280;10386;54.314;10.022;2022-11-02T21:12:14;101347.16;;;8.94;100.00
20455;BME280;10386;54.314;10.022;2022-11-02T21:15:45;101352.28;;;8.99;100.00
20455;BME280;10386;54.314;10.022;2022-11-02T21:18:54;101354.03;;;9.00;100.00
20455;BME280;10386;54.314;10.022;2022-11-02T21:30:20;101359.53;;;9.14;100.00
20455;BME280;10386;54.314;10.022;2022-11-02T21:36:13;101367.06;;;9.09;100.00
20455;BME280;10386;54.314;10.022;2022-11-02T23:32:16;101340.81;;;8.78;100.00
20455;BME280;10386;54.314;10.022;2022-11-02T23:40:59;101324.94;;;8.88;100.00
20455;BME280;10386;54.314;10.022;2022-11-02T23:55:53;101333.75;;;8.91;100.00
